sensor_id;sensor_type;location;lat;lon;timestamp;pressure;altitude;pressure_sealevel;temperature;humidity
3960;BME280;1994;48.640;8.894;2023-09-18T00:01:57;95630.75;;;20.47;73.91
3960;BME280;1994;48.640;8.894;2023-09-18T00:04:24;95625.19;;;20.40;73.73
3960;BME280;1994;48.640;8.894;2023-09-18T00:06:49;95628.59;;;20.40;73.65
3960;BME280;1994;48.640;8.894;2023-09-18T00:09:15;95619.47;;;20.38;74.00
3960;BME280;1994;48.640;8.894;2023-09-18T00:11:44;95617.38;;;20.18;75.00
3960;BME280;1994;48.640;8.894;2023-09-18T00:14:10;95606.16;;;20.04;75.95
3960;BME280;1994;48.640;8.894;2023-09-18T00:16:36;95611.31;;;20.09;75.85
3960;BME280;1994;48.640;8.894;2023-09-18T00:19:02;95617.75;;;20.03;76.63
3960;BME280;1994;48.640;8.894;2023-09-18T00:21:28;95610.34;;;19.96;76.80
3960;BME280;1994;48.640;8.894;2023-09-18T00:23:56;95607.06;;;19.91;76.89
3960;BME280;1994;48.640;8.894;2023-09-18T00:26:24;95609.94;;;20.11;76.27
3960;BME280;1994;48.640;8.894;2023-09-18T00:28:50;95618.78;;;20.15;75.67
3960;BME280;1994;48.640;8.894;2023-09-18T00:31:16;95613.69;;;20.19;75.68
3960;BME280;1994;48.640;8.894;2023-09-18T00:33:42;95621.03;;;20.00;75.96
3960;BME280;1994;48.640;8.894;2023-09-18T00:36:07;95630.84;;;19.86;76.86
3960;BME280;1994;48.640;8.894;2023-09-18T00:38:33;95628.50;;;19.84;76.70
3960;BME280;1994;48.640;8.894;2023-09-18T00:40:59;95618.91;;;19.80;77.23
3960;BME280;1994;48.640;8.894;2023-09-18T00:43:25;95624.88;;;19.94;76.33
3960;BME280;1994;48.640;8.894;2023-09-18T00:45:50;95614.22;;;19.99;76.23
3960;BME280;1994;48.640;8.894;2023-09-18T00:48:17;95615.13;;;20.03;76.05
3960;BME280;1994;48.640;8.894;2023-09-18T00:50:46;95631.66;;;19.95;76.27
3960;BME280;1994;48.640;8.894;2023-09-18T00:53:20;95610.09;;;19.76;76.85
3960;BME280;1994;48.640;8.894;2023-09-18T00:55:55;95606.72;;;19.84;76.55
3960;BME280;1994;48.640;8.894;2023-09-18T00:58:33;95624.31;;;19.75;77.03
3960;BME280;1994;48.640;8.894;2023-09-18T01:01:03;95610.97;;;19.63;77.89
3960;BME280;1994;48.640;8.894;2023-09-18T01:03:29;95623.00;;;19.64;77.84
3960;BME280;1994;48.640;8.894;2023-09-18T01:05:55;95617.53;;;19.52;78.63
3960;BME280;1994;48.640;8.894;2023-09-18T01:08:25;95617.16;;;19.36;79.60
3960;BME280;1994;48.640;8.894;2023-09-18T01:13:56;95605.50;;;19.51;79.54
3960;BME280;1994;48.640;8.894;2023-09-18T01:16:58;95603.78;;;19.55;80.06
3960;BME280;1994;48.640;8.894;2023-09-18T01:19:44;95597.84;;;19.71;79.83
3960;BME280;1994;48.640;8.894;2023-09-18T01:22:18;95601.19;;;19.85;79.28
3960;BME280;1994;48.640;8.894;2023-09-18T01:24:46;95613.13;;;20.00;78.73
3960;BME280;1994;48.640;8.894;2023-09-18T01:27:17;95647.38;;;20.08;78.22
3960;BME280;1994;48.640;8.894;2023-09-18T01:29:47;95703.59;;;19.99;78.83
3960;BME280;1994;48.640;8.894;2023-09-18T01:32:17;95704.38;;;19.99;78.92
3960;BME280;1994;48.640;8.894;2023-09-18T01:34:50;95714.28;;;20.02;79.21
3960;BME280;1994;48.640;8.894;2023-09-18T01:37:21;95701.81;;;20.08;82.05
3960;BME280;1994;48.640;8.894;2023-09-18T01:39:50;95703.25;;;19.92;82.32
3960;BME280;1994;48.640;8.894;2023-09-18T01:42:17;95659.16;;;19.89;83.08
3960;BME280;1994;48.640;8.894;2023-09-18T01:44:45;95626.69;;;19.85;83.01
3960;BME280;1994;48.640;8.894;2023-09-18T01:47:21;95592.25;;;19.95;82.65
3960;BME280;1994;48.640;8.894;2023-09-18T01:49:52;95508.88;;;19.95;82.64
3960;BME280;1994;48.640;8.894;2023-09-18T01:52:18;95495.16;;;20.07;84.89
3960;BME280;1994;48.640;8.894;2023-09-18T01:54:44;95482.03;;;20.07;84.60
3960;BME280;1994;48.640;8.894;2023-09-18T01:57:10;95502.47;;;20.18;84.76
3960;BME280;1994;48.640;8.894;2023-09-18T01:59:37;95517.75;;;20.25;85.82
3960;BME280;1994;48.640;8.894;2023-09-18T02:02:04;95525.50;;;20.30;85.14
3960;BME280;1994;48.640;8.894;2023-09-18T02:04:32;95526.13;;;20.27;85.51
3960;BME280;1994;48.640;8.894;2023-09-18T02:06:59;95539.75;;;20.29;82.18
3960;BME280;1994;48.640;8.894;2023-09-18T02:09:24;95562.34;;;20.30;80.76
3960;BME280;1994;48.640;8.894;2023-09-18T02:11:50;95560.78;;;20.37;79.61
3960;BME280;1994;48.640;8.894;2023-09-18T02:14:16;95552.13;;;20.37;79.99
3960;BME280;1994;48.640;8.894;2023-09-18T02:16:43;95558.16;;;20.37;80.91
3960;BME280;1994;48.640;8.894;2023-09-18T02:19:13;95563.72;;;20.27;80.59
3960;BME280;1994;48.640;8.894;2023-09-18T02:21:48;95570.66;;;20.15;81.12
3960;BME280;1994;48.640;8.894;2023-09-18T02:24:14;95571.91;;;20.17;80.91
3960;BME280;1994;48.640;8.894;2023-09-18T02:26:42;95574.38;;;20.14;82.18
3960;BME280;1994;48.640;8.894;2023-09-18T02:29:09;95578.72;;;20.18;83.39
3960;BME280;1994;48.640;8.894;2023-09-18T02:31:40;95593.59;;;20.23;84.73
3960;BME280;1994;48.640;8.894;2023-09-18T02:34:06;95594.09;;;20.03;83.98
3960;BME280;1994;48.640;8.894;2023-09-18T02:36:33;95588.19;;;19.89;83.56
3960;BME280;1994;48.640;8.894;2023-09-18T02:38:59;95587.56;;;19.92;83.01
3960;BME280;1994;48.640;8.894;2023-09-18T02:41:25;95578.59;;;19.93;83.83
3960;BME280;1994;48.640;8.894;2023-09-18T02:43:51;95573.94;;;19.81;83.56
3960;BME280;1994;48.640;8.894;2023-09-18T02:46:16;95568.66;;;19.73;83.65
3960;BME280;1994;48.640;8.894;2023-09-18T02:48:42;95561.41;;;19.78;82.54
3960;BME280;1994;48.640;8.894;2023-09-18T02:51:08;95552.00;;;19.86;82.96
3960;BME280;1994;48.640;8.894;2023-09-18T02:53:34;95543.66;;;19.84;83.13
3960;BME280;1994;48.640;8.894;2023-09-18T02:56:00;95524.94;;;19.85;83.53
3960;BME280;1994;48.640;8.894;2023-09-18T02:58:26;95531.28;;;19.93;83.69
3960;BME280;1994;48.640;8.894;2023-09-18T03:00:56;95530.09;;;19.99;84.17
3960;BME280;1994;48.640;8.894;2023-09-18T03:03:25;95529.16;;;19.95;84.13
3960;BME280;1994;48.640;8.894;2023-09-18T03:05:51;95524.03;;;19.90;83.72
3960;BME280;1994;48.640;8.894;2023-09-18T03:08:17;95522.34;;;19.94;83.79
3960;BME280;1994;48.640;8.894;2023-09-18T03:10:44;95535.16;;;19.95;83.17
3960;BME280;1994;48.640;8.894;2023-09-18T03:13:12;95547.84;;;19.93;83.43
3960;BME280;1994;48.640;8.894;2023-09-18T03:15:38;95550.44;;;19.85;83.44
3960;BME280;1994;48.640;8.894;2023-09-18T03:18:06;95552.94;;;19.90;83.44
3960;BME280;1994;48.640;8.894;2023-09-18T03:20:33;95559.59;;;19.87;83.94
3960;BME280;1994;48.640;8.894;2023-09-18T03:23:01;95566.81;;;19.82;83.45
3960;BME280;1994;48.640;8.894;2023-09-18T03:25:27;95575.78;;;19.81;83.84
3960;BME280;1994;48.640;8.894;2023-09-18T03:27:56;95595.25;;;19.80;83.77
3960;BME280;1994;48.640;8.894;2023-09-18T03:30:23;95612.75;;;19.54;84.83
3960;BME280;1994;48.640;8.894;2023-09-18T03:32:50;95628.47;;;19.45;85.84
3960;BME280;1994;48.640;8.894;2023-09-18T03:35:17;95639.88;;;19.41;86.70
3960;BME280;1994;48.640;8.894;2023-09-18T03:37:52;95658.25;;;19.19;88.40
3960;BME280;1994;48.640;8.894;2023-09-18T03:40:22;95666.06;;;19.10;89.69
3960;BME280;1994;48.640;8.894;2023-09-18T03:42:48;95668.84;;;18.92;91.41
3960;BME280;1994;48.640;8.894;2023-09-18T03:45:17;95698.97;;;18.94;92.42
3960;BME280;1994;48.640;8.894;2023-09-18T03:47:44;95700.53;;;18.82;93.19
3960;BME280;1994;48.640;8.894;2023-09-18T03:50:11;95686.25;;;18.88;92.28
3960;BME280;1994;48.640;8.894;2023-09-18T03:52:38;95689.22;;;18.95;92.10
3960;BME280;1994;48.640;8.894;2023-09-18T03:55:06;95671.72;;;19.04;92.24
3960;BME280;1994;48.640;8.894;2023-09-18T03:57:32;95656.09;;;19.21;92.13
3960;BME280;1994;48.640;8.894;2023-09-18T03:59:58;95643.59;;;19.40;89.92
3960;BME280;1994;48.640;8.894;2023-09-18T04:02:25;95632.75;;;19.63;89.10
3960;BME280;1994;48.640;8.894;2023-09-18T04:04:53;95598.34;;;19.82;86.60
3960;BME280;1994;48.640;8.894;2023-09-18T04:07:20;95590.06;;;19.97;85.60
3960;BME280;1994;48.640;8.894;2023-09-18T04:09:46;95581.78;;;20.12;84.36
3960;BME280;1994;48.640;8.894;2023-09-18T04:12:12;95563.25;;;20.17;84.04
3960;BME280;1994;48.640;8.894;2023-09-18T04:14:39;95545.44;;;20.22;82.30
3960;BME280;1994;48.640;8.894;2023-09-18T04:17:04;95550.28;;;20.29;81.63
3960;BME280;1994;48.640;8.894;2023-09-18T04:19:30;95544.56;;;20.35;81.05
3960;BME280;1994;48.640;8.894;2023-09-18T04:21:56;95521.34;;;20.37;81.47
3960;BME280;1994;48.640;8.894;2023-09-18T04:24:22;95532.94;;;20.36;82.53
3960;BME280;1994;48.640;8.894;2023-09-18T04:26:49;95537.91;;;20.38;82.19
3960;BME280;1994;48.640;8.894;2023-09-18T04:29:19;95523.38;;;20.32;83.04
3960;BME280;1994;48.640;8.894;2023-09-18T04:31:45;95521.34;;;20.37;82.79
3960;BME280;1994;48.640;8.894;2023-09-18T04:34:11;95510.50;;;20.39;82.91
3960;BME280;1994;48.640;8.894;2023-09-18T04:36:37;95510.66;;;20.34;83.02
3960;BME280;1994;48.640;8.894;2023-09-18T04:39:05;95512.22;;;20.35;82.88
3960;BME280;1994;48.640;8.894;2023-09-18T04:41:32;95508.63;;;20.22;83.31
3960;BME280;1994;48.640;8.894;2023-09-18T04:43:58;95516.47;;;19.97;84.72
3960;BME280;1994;48.640;8.894;2023-09-18T04:46:24;95518.91;;;19.85;85.97
3960;BME280;1994;48.640;8.894;2023-09-18T04:48:51;95526.94;;;19.80;86.46
3960;BME280;1994;48.640;8.894;2023-09-18T04:51:16;95526.47;;;19.78;86.50
3960;BME280;1994;48.640;8.894;2023-09-18T04:53:42;95530.34;;;19.80;86.39
3960;BME280;1994;48.640;8.894;2023-09-18T04:56:09;95530.66;;;19.79;86.25
3960;BME280;1994;48.640;8.894;2023-09-18T04:58:36;95528.19;;;19.91;85.48
3960;BME280;1994;48.640;8.894;2023-09-18T05:01:05;95531.25;;;19.84;85.97
3960;BME280;1994;48.640;8.894;2023-09-18T05:03:35;95524.75;;;19.82;86.13
3960;BME280;1994;48.640;8.894;2023-09-18T05:06:02;95542.09;;;19.83;86.27
3960;BME280;1994;48.640;8.894;2023-09-18T05:08:29;95541.16;;;19.79;86.98
3960;BME280;1994;48.640;8.894;2023-09-18T05:10:56;95573.91;;;19.73;87.32
3960;BME280;1994;48.640;8.894;2023-09-18T05:13:23;95566.31;;;19.71;87.88
3960;BME280;1994;48.640;8.894;2023-09-18T05:15:49;95580.38;;;19.67;88.55
3960;BME280;1994;48.640;8.894;2023-09-18T05:18:15;95554.84;;;19.59;89.02
3960;BME280;1994;48.640;8.894;2023-09-18T05:20:40;95561.63;;;19.60;89.19
3960;BME280;1994;48.640;8.894;2023-09-18T05:23:06;95568.75;;;19.59;89.26
3960;BME280;1994;48.640;8.894;2023-09-18T05:25:34;95576.72;;;19.46;90.17
3960;BME280;1994;48.640;8.894;2023-09-18T05:28:03;95572.69;;;19.40;90.52
3960;BME280;1994;48.640;8.894;2023-09-18T05:30:33;95581.75;;;19.34;91.41
3960;BME280;1994;48.640;8.894;2023-09-18T05:33:05;95580.81;;;19.30;92.18
3960;BME280;1994;48.640;8.894;2023-09-18T05:35:40;95586.47;;;19.23;92.20
3960;BME280;1994;48.640;8.894;2023-09-18T05:38:07;95587.25;;;19.24;92.41
3960;BME280;1994;48.640;8.894;2023-09-18T05:40:34;95580.81;;;19.30;93.61
3960;BME280;1994;48.640;8.894;2023-09-18T05:43:00;95580.47;;;19.23;93.86
3960;BME280;1994;48.640;8.894;2023-09-18T05:45:26;95577.94;;;19.18;94.08
3960;BME280;1994;48.640;8.894;2023-09-18T05:47:52;95575.44;;;19.13;94.26
3960;BME280;1994;48.640;8.894;2023-09-18T05:50:38;95576.75;;;19.24;93.84
3960;BME280;1994;48.640;8.894;2023-09-18T05:53:04;95578.41;;;19.20;93.90
3960;BME280;1994;48.640;8.894;2023-09-18T05:55:31;95567.44;;;19.18;93.75
3960;BME280;1994;48.640;8.894;2023-09-18T05:57:57;95548.50;;;19.29;93.81
3960;BME280;1994;48.640;8.894;2023-09-18T06:00:23;95553.97;;;19.19;94.28
3960;BME280;1994;48.640;8.894;2023-09-18T06:02:50;95575.72;;;19.11;95.28
3960;BME280;1994;48.640;8.894;2023-09-18T06:05:17;95570.94;;;19.13;95.57
3960;BME280;1994;48.640;8.894;2023-09-18T06:07:49;95560.75;;;19.12;95.49
3960;BME280;1994;48.640;8.894;2023-09-18T06:10:16;95569.56;;;19.16;95.96
3960;BME280;1994;48.640;8.894;2023-09-18T06:12:44;95564.31;;;19.16;96.16
3960;BME280;1994;48.640;8.894;2023-09-18T06:15:10;95578.53;;;19.15;96.74
3960;BME280;1994;48.640;8.894;2023-09-18T06:17:42;95587.25;;;19.02;97.24
3960;BME280;1994;48.640;8.894;2023-09-18T06:20:10;95599.53;;;19.15;97.17
3960;BME280;1994;48.640;8.894;2023-09-18T06:22:37;95594.66;;;19.22;96.83
3960;BME280;1994;48.640;8.894;2023-09-18T06:25:05;95594.06;;;19.25;96.77
3960;BME280;1994;48.640;8.894;2023-09-18T06:27:34;95593.69;;;19.18;96.98
3960;BME280;1994;48.640;8.894;2023-09-18T06:30:01;95604.44;;;19.08;97.45
3960;BME280;1994;48.640;8.894;2023-09-18T06:32:27;95592.38;;;19.07;97.89
3960;BME280;1994;48.640;8.894;2023-09-18T06:34:52;95599.75;;;19.05;98.37
3960;BME280;1994;48.640;8.894;2023-09-18T06:37:18;95609.06;;;19.11;98.32
3960;BME280;1994;48.640;8.894;2023-09-18T06:39:44;95599.53;;;19.15;98.16
3960;BME280;1994;48.640;8.894;2023-09-18T06:42:10;95598.31;;;19.21;98.24
3960;BME280;1994;48.640;8.894;2023-09-18T06:44:36;95606.31;;;19.16;98.08
3960;BME280;1994;48.640;8.894;2023-09-18T06:47:03;95607.66;;;19.27;96.89
3960;BME280;1994;48.640;8.894;2023-09-18T06:49:29;95609.81;;;19.25;96.15
3960;BME280;1994;48.640;8.894;2023-09-18T06:51:56;95629.97;;;19.38;94.75
3960;BME280;1994;48.640;8.894;2023-09-18T06:54:22;95627.06;;;19.39;93.93
3960;BME280;1994;48.640;8.894;2023-09-18T06:56:48;95627.22;;;19.43;92.83
3960;BME280;1994;48.640;8.894;2023-09-18T06:59:14;95630.34;;;19.45;91.92
3960;BME280;1994;48.640;8.894;2023-09-18T07:01:40;95624.56;;;19.65;91.51
3960;BME280;1994;48.640;8.894;2023-09-18T07:04:07;95618.72;;;19.68;90.72
3960;BME280;1994;48.640;8.894;2023-09-18T07:06:33;95620.84;;;19.66;90.38
3960;BME280;1994;48.640;8.894;2023-09-18T07:08:59;95624.97;;;19.80;89.70
3960;BME280;1994;48.640;8.894;2023-09-18T07:11:25;95618.78;;;19.85;89.33
3960;BME280;1994;48.640;8.894;2023-09-18T07:13:51;95619.13;;;19.92;89.51
3960;BME280;1994;48.640;8.894;2023-09-18T07:16:17;95631.81;;;19.90;90.15
3960;BME280;1994;48.640;8.894;2023-09-18T07:18:44;95628.84;;;19.83;88.74
3960;BME280;1994;48.640;8.894;2023-09-18T07:21:10;95617.25;;;19.84;86.89
3960;BME280;1994;48.640;8.894;2023-09-18T07:23:36;95628.09;;;19.91;85.56
3960;BME280;1994;48.640;8.894;2023-09-18T07:26:03;95646.78;;;19.89;85.28
3960;BME280;1994;48.640;8.894;2023-09-18T07:28:29;95648.34;;;19.90;85.80
3960;BME280;1994;48.640;8.894;2023-09-18T07:30:54;95651.88;;;19.86;85.81
3960;BME280;1994;48.640;8.894;2023-09-18T07:33:20;95651.53;;;19.79;86.20
3960;BME280;1994;48.640;8.894;2023-09-18T07:35:50;95654.03;;;19.84;85.58
3960;BME280;1994;48.640;8.894;2023-09-18T07:38:18;95671.28;;;19.68;86.24
3960;BME280;1994;48.640;8.894;2023-09-18T07:40:47;95669.91;;;19.70;85.81
3960;BME280;1994;48.640;8.894;2023-09-18T07:43:13;95673.31;;;19.79;85.67
3960;BME280;1994;48.640;8.894;2023-09-18T07:45:40;95679.72;;;19.87;85.88
3960;BME280;1994;48.640;8.894;2023-09-18T07:48:09;95680.91;;;19.81;86.58
3960;BME280;1994;48.640;8.894;2023-09-18T07:50:35;95682.69;;;19.94;87.09
3960;BME280;1994;48.640;8.894;2023-09-18T07:53:02;95690.22;;;19.87;87.52
3960;BME280;1994;48.640;8.894;2023-09-18T07:55:28;95684.03;;;19.83;87.65
3960;BME280;1994;48.640;8.894;2023-09-18T07:57:56;95698.91;;;19.87;87.22
3960;BME280;1994;48.640;8.894;2023-09-18T08:00:22;95704.44;;;19.86;87.78
3960;BME280;1994;48.640;8.894;2023-09-18T08:02:49;95709.69;;;19.86;87.74
3960;BME280;1994;48.640;8.894;2023-09-18T08:05:16;95713.41;;;19.85;86.98
3960;BME280;1994;48.640;8.894;2023-09-18T08:07:43;95708.00;;;19.81;87.57
3960;BME280;1994;48.640;8.894;2023-09-18T08:10:09;95716.34;;;19.83;87.05
3960;BME280;1994;48.640;8.894;2023-09-18T08:12:36;95724.91;;;19.67;87.56
3960;BME280;1994;48.640;8.894;2023-09-18T08:15:02;95756.31;;;19.72;89.07
3960;BME280;1994;48.640;8.894;2023-09-18T08:17:28;95762.22;;;19.55;89.77
3960;BME280;1994;48.640;8.894;2023-09-18T08:19:54;95756.78;;;19.52;89.77
3960;BME280;1994;48.640;8.894;2023-09-18T08:22:24;95755.25;;;19.51;90.69
3960;BME280;1994;48.640;8.894;2023-09-18T08:24:50;95748.88;;;19.30;92.06
3960;BME280;1994;48.640;8.894;2023-09-18T08:27:18;95745.97;;;19.18;93.88
3960;BME280;1994;48.640;8.894;2023-09-18T08:29:47;95730.53;;;19.03;95.02
3960;BME280;1994;48.640;8.894;2023-09-18T08:32:23;95721.69;;;18.99;96.17
3960;BME280;1994;48.640;8.894;2023-09-18T08:34:49;95728.31;;;18.96;96.66
3960;BME280;1994;48.640;8.894;2023-09-18T08:37:15;95724.44;;;18.94;97.80
3960;BME280;1994;48.640;8.894;2023-09-18T08:39:40;95716.88;;;18.79;98.80
3960;BME280;1994;48.640;8.894;2023-09-18T08:42:10;95707.34;;;18.83;99.26
3960;BME280;1994;48.640;8.894;2023-09-18T08:44:39;95707.72;;;18.90;99.01
3960;BME280;1994;48.640;8.894;2023-09-18T08:47:08;95706.59;;;18.69;99.75
3960;BME280;1994;48.640;8.894;2023-09-18T08:49:37;95723.53;;;18.63;100.00
3960;BME280;1994;48.640;8.894;2023-09-18T08:52:04;95727.19;;;18.62;100.00
3960;BME280;1994;48.640;8.894;2023-09-18T08:54:30;95731.25;;;18.54;100.00
3960;BME280;1994;48.640;8.894;2023-09-18T08:56:57;95730.31;;;18.37;100.00
3960;BME280;1994;48.640;8.894;2023-09-18T08:59:25;95730.31;;;18.37;100.00
3960;BME280;1994;48.640;8.894;2023-09-18T09:01:55;95746.44;;;18.44;100.00
3960;BME280;1994;48.640;8.894;2023-09-18T09:04:21;95733.03;;;18.32;100.00
3960;BME280;1994;48.640;8.894;2023-09-18T09:06:49;95732.66;;;18.52;100.00
3960;BME280;1994;48.640;8.894;2023-09-18T09:09:15;95715.25;;;18.42;100.00
3960;BME280;1994;48.640;8.894;2023-09-18T09:11:49;95719.13;;;18.45;100.00
3960;BME280;1994;48.640;8.894;2023-09-18T09:14:15;95740.03;;;18.50;100.00
3960;BME280;1994;48.640;8.894;2023-09-18T09:16:51;95733.59;;;18.56;100.00
3960;BME280;1994;48.640;8.894;2023-09-18T09:19:29;95725.72;;;18.56;100.00
3960;BME280;1994;48.640;8.894;2023-09-18T09:22:04;95737.78;;;18.57;100.00
3960;BME280;1994;48.640;8.894;2023-09-18T09:24:56;95738.84;;;18.56;100.00
3960;BME280;1994;48.640;8.894;2023-09-18T09:27:22;95723.72;;;18.53;100.00
3960;BME280;1994;48.640;8.894;2023-09-18T09:30:00;95714.47;;;18.69;100.00
3960;BME280;1994;48.640;8.894;2023-09-18T09:32:31;95722.91;;;18.66;100.00
3960;BME280;1994;48.640;8.894;2023-09-18T09:35:01;95748.34;;;18.65;100.00
3960;BME280;1994;48.640;8.894;2023-09-18T09:37:30;95736.91;;;18.75;100.00
3960;BME280;1994;48.640;8.894;2023-09-18T09:39:56;95747.41;;;18.75;100.00
3960;BME280;1994;48.640;8.894;2023-09-18T09:42:29;95743.91;;;18.66;100.00
3960;BME280;1994;48.640;8.894;2023-09-18T09:45:14;95717.91;;;18.91;100.00
3960;BME280;1994;48.640;8.894;2023-09-18T09:47:43;95725.06;;;19.13;100.00
3960;BME280;1994;48.640;8.894;2023-09-18T09:50:14;95708.00;;;19.02;100.00
3960;BME280;1994;48.640;8.894;2023-09-18T09:52:47;95717.41;;;19.03;100.00
3960;BME280;1994;48.640;8.894;2023-09-18T09:55:24;95707.34;;;18.83;100.00
3960;BME280;1994;48.640;8.894;2023-09-18T09:57:53;95704.94;;;19.08;100.00
3960;BME280;1994;48.640;8.894;2023-09-18T10:00:24;95697.72;;;18.92;100.00
3960;BME280;1994;48.640;8.894;2023-09-18T10:03:00;95680.22;;;18.87;100.00
3960;BME280;1994;48.640;8.894;2023-09-18T10:05:31;95712.19;;;18.89;100.00
3960;BME280;1994;48.640;8.894;2023-09-18T10:08:00;95744.94;;;18.92;100.00
3960;BME280;1994;48.640;8.894;2023-09-18T10:10:31;95756.72;;;18.81;100.00
3960;BME280;1994;48.640;8.894;2023-09-18T10:13:04;95767.22;;;18.81;100.00
3960;BME280;1994;48.640;8.894;2023-09-18T10:15:34;95761.56;;;19.01;100.00
3960;BME280;1994;48.640;8.894;2023-09-18T10:18:07;95751.66;;;18.84;100.00
3960;BME280;1994;48.640;8.894;2023-09-18T10:20:40;95765.56;;;18.85;100.00
3960;BME280;1994;48.640;8.894;2023-09-18T10:23:18;95774.03;;;18.82;100.00
3960;BME280;1994;48.640;8.894;2023-09-18T10:25:57;95782.00;;;18.77;100.00
3960;BME280;1994;48.640;8.894;2023-09-18T10:28:26;95762.72;;;18.81;100.00
3960;BME280;1994;48.640;8.894;2023-09-18T10:30:56;95751.19;;;18.96;100.00
3960;BME280;1994;48.640;8.894;2023-09-18T10:33:23;95766.63;;;18.84;100.00
3960;BME280;1994;48.640;8.894;2023-09-18T10:35:52;95762.34;;;18.88;100.00
3960;BME280;1994;48.640;8.894;2023-09-18T10:38:18;95745.44;;;18.94;100.00
3960;BME280;1994;48.640;8.894;2023-09-18T10:40:47;95756.72;;;18.94;100.00
3960;BME280;1994;48.640;8.894;2023-09-18T10:43:15;95740.34;;;18.97;100.00
3960;BME280;1994;48.640;8.894;2023-09-18T10:45:49;95727.75;;;18.86;100.00
3960;BME280;1994;48.640;8.894;2023-09-18T10:48:19;95743.31;;;18.96;100.00
3960;BME280;1994;48.640;8.894;2023-09-18T10:50:45;95742.69;;;18.99;100.00
3960;BME280;1994;48.640;8.894;2023-09-18T10:53:12;95749.50;;;19.00;100.00
3960;BME280;1994;48.640;8.894;2023-09-18T10:55:38;95743.31;;;18.96;100.00
3960;BME280;1994;48.640;8.894;2023-09-18T10:58:04;95734.72;;;19.04;100.00
3960;BME280;1994;48.640;8.894;2023-09-18T11:00:32;95748.56;;;18.96;100.00
3960;BME280;1994;48.640;8.894;2023-09-18T11:03:14;95746.59;;;18.88;100.00
3960;BME280;1994;48.640;8.894;2023-09-18T11:05:40;95718.59;;;18.97;100.00
3960;BME280;1994;48.640;8.894;2023-09-18T11:11:06;95718.97;;;19.04;100.00
3960;BME280;1994;48.640;8.894;2023-09-18T11:13:47;95728.06;;;19.20;100.00
3960;BME280;1994;48.640;8.894;2023-09-18T11:16:14;95741.16;;;18.98;99.17
3960;BME280;1994;48.640;8.894;2023-09-18T11:18:40;95758.34;;;19.04;98.63
3960;BME280;1994;48.640;8.894;2023-09-18T11:21:11;95751.50;;;19.16;98.43
3960;BME280;1994;48.640;8.894;2023-09-18T11:23:42;95746.72;;;19.18;98.10
3960;BME280;1994;48.640;8.894;2023-09-18T11:26:23;95743.81;;;19.20;98.42
3960;BME280;1994;48.640;8.894;2023-09-18T11:28:52;95738.56;;;19.20;97.27
3960;BME280;1994;48.640;8.894;2023-09-18T11:31:20;95740.13;;;19.21;96.85
3960;BME280;1994;48.640;8.894;2023-09-18T11:33:47;95752.19;;;19.08;97.85
3960;BME280;1994;48.640;8.894;2023-09-18T11:36:33;95770.78;;;19.25;97.26
3960;BME280;1994;48.640;8.894;2023-09-18T11:39:01;95766.91;;;19.23;98.26
3960;BME280;1994;48.640;8.894;2023-09-18T11:41:40;95761.66;;;19.23;96.42
3960;BME280;1994;48.640;8.894;2023-09-18T11:46:51;95767.38;;;19.25;95.01
3960;BME280;1994;48.640;8.894;2023-09-18T11:49:24;95777.47;;;19.18;95.22
3960;BME280;1994;48.640;8.894;2023-09-18T11:51:54;95771.84;;;19.11;96.36
3960;BME280;1994;48.640;8.894;2023-09-18T11:54:20;95780.22;;;19.13;95.28
3960;BME280;1994;48.640;8.894;2023-09-18T11:56:47;95764.75;;;19.25;94.00
3960;BME280;1994;48.640;8.894;2023-09-18T11:59:13;95745.47;;;19.29;93.69
3960;BME280;1994;48.640;8.894;2023-09-18T12:01:39;95744.97;;;19.41;92.45
3960;BME280;1994;48.640;8.894;2023-09-18T12:04:05;95743.41;;;19.40;92.66
3960;BME280;1994;48.640;8.894;2023-09-18T12:06:42;95749.03;;;19.47;93.24
3960;BME280;1994;48.640;8.894;2023-09-18T12:09:08;95757.00;;;19.42;91.99
3960;BME280;1994;48.640;8.894;2023-09-18T12:11:35;95747.88;;;19.39;91.63
3960;BME280;1994;48.640;8.894;2023-09-18T12:14:02;95742.03;;;19.42;90.99
3960;BME280;1994;48.640;8.894;2023-09-18T12:16:39;95738.91;;;19.40;91.50
3960;BME280;1994;48.640;8.894;2023-09-18T12:19:05;95726.88;;;19.61;90.35
3960;BME280;1994;48.640;8.894;2023-09-18T12:21:33;95728.59;;;19.66;90.17
3960;BME280;1994;48.640;8.894;2023-09-18T12:24:05;95721.06;;;19.73;89.68
3960;BME280;1994;48.640;8.894;2023-09-18T12:26:31;95740.28;;;19.82;88.25
3960;BME280;1994;48.640;8.894;2023-09-18T12:28:59;95733.25;;;19.91;86.73
3960;BME280;1994;48.640;8.894;2023-09-18T12:31:26;95735.72;;;20.18;84.57
3960;BME280;1994;48.640;8.894;2023-09-18T12:33:51;95753.88;;;20.28;83.08
3960;BME280;1994;48.640;8.894;2023-09-18T12:36:20;95771.13;;;20.12;83.60
3960;BME280;1994;48.640;8.894;2023-09-18T12:39:00;95746.00;;;20.06;84.05
3960;BME280;1994;48.640;8.894;2023-09-18T12:41:28;95747.34;;;20.17;83.61
3960;BME280;1994;48.640;8.894;2023-09-18T12:43:56;95748.59;;;20.19;83.46
3960;BME280;1994;48.640;8.894;2023-09-18T12:46:23;95727.84;;;20.18;83.20
3960;BME280;1994;48.640;8.894;2023-09-18T12:48:48;95739.56;;;20.12;84.35
3960;BME280;1994;48.640;8.894;2023-09-18T12:51:14;95735.94;;;20.30;83.99
3960;BME280;1994;48.640;8.894;2023-09-18T12:53:42;95724.56;;;20.43;82.42
3960;BME280;1994;48.640;8.894;2023-09-18T12:56:13;95716.78;;;20.38;83.56
3960;BME280;1994;48.640;8.894;2023-09-18T12:58:40;95714.34;;;20.50;83.21
3960;BME280;1994;48.640;8.894;2023-09-18T13:01:10;95724.59;;;20.60;83.44
3960;BME280;1994;48.640;8.894;2023-09-18T13:03:45;95706.03;;;20.65;82.29
3960;BME280;1994;48.640;8.894;2023-09-18T13:06:18;95718.72;;;20.63;81.57
3960;BME280;1994;48.640;8.894;2023-09-18T13:08:44;95706.38;;;20.72;81.88
3960;BME280;1994;48.640;8.894;2023-09-18T13:11:10;95720.59;;;20.62;81.78
3960;BME280;1994;48.640;8.894;2023-09-18T13:13:38;95710.69;;;20.68;82.05
3960;BME280;1994;48.640;8.894;2023-09-18T13:16:08;95711.09;;;20.92;80.56
3960;BME280;1994;48.640;8.894;2023-09-18T13:18:37;95701.81;;;21.03;81.13
3960;BME280;1994;48.640;8.894;2023-09-18T13:21:13;95693.44;;;21.26;79.95
3960;BME280;1994;48.640;8.894;2023-09-18T13:23:42;95692.97;;;21.24;78.68
3960;BME280;1994;48.640;8.894;2023-09-18T13:26:08;95688.78;;;21.15;78.88
3960;BME280;1994;48.640;8.894;2023-09-18T13:28:35;95693.91;;;21.11;79.32
3960;BME280;1994;48.640;8.894;2023-09-18T13:31:03;95701.31;;;21.09;79.12
3960;BME280;1994;48.640;8.894;2023-09-18T13:33:38;95713.41;;;21.10;79.98
3960;BME280;1994;48.640;8.894;2023-09-18T13:36:04;95716.69;;;21.07;77.57